createdAt,value
2023-02-24T00:00:38.577Z,0.37
2023-02-24T00:03:11.723Z,0.10
2023-02-24T00:05:44.579Z,0.43
2023-02-24T00:08:14.014Z,0.10
2023-02-24T00:10:42.285Z,0.33
2023-02-24T00:13:12.195Z,0.00
2023-02-24T00:15:40.329Z,0.10
2023-02-24T00:18:09.410Z,0.10
2023-02-24T00:20:37.474Z,0.43
2023-02-24T00:23:05.545Z,0.03
2023-02-24T00:25:35.118Z,0.47
2023-02-24T00:28:03.820Z,0.20
2023-02-24T00:30:33.246Z,0.30
2023-02-24T00:33:04.033Z,0.30
2023-02-24T00:35:32.255Z,0.40
2023-02-24T00:38:01.085Z,0.30
2023-02-24T00:40:30.922Z,0.30
2023-02-24T00:43:00.398Z,0.17
2023-02-24T00:45:31.032Z,0.10
2023-02-24T00:47:59.456Z,0.30
2023-02-24T00:50:27.625Z,0.50
2023-02-24T00:52:55.673Z,1.13
2023-02-24T00:55:23.917Z,0.30
2023-02-24T00:57:52.087Z,0.40
2023-02-24T01:00:23.515Z,0.10
2023-02-24T01:02:51.568Z,1.03
2023-02-24T01:05:20.087Z,0.40
2023-02-24T01:07:48.133Z,1.13
2023-02-24T01:10:18.488Z,0.40
2023-02-24T01:12:54.034Z,0.40
2023-02-24T01:15:24.384Z,0.80
2023-02-24T01:17:52.486Z,0.73
2023-02-24T01:20:20.848Z,0.60
2023-02-24T01:22:51.005Z,0.57
2023-02-24T01:25:20.876Z,0.40
2023-02-24T01:27:49.705Z,0.40
2023-02-24T01:30:18.884Z,0.10
2023-02-24T01:32:49.152Z,0.93
2023-02-24T01:35:18.120Z,0.73
2023-02-24T01:37:46.554Z,0.30
2023-02-24T01:40:21.484Z,0.37
2023-02-24T01:42:50.658Z,0.17
2023-02-24T01:45:22.863Z,0.73
2023-02-24T01:47:53.490Z,0.80
2023-02-24T01:50:26.439Z,0.20
2023-02-24T01:52:59.063Z,0.73
2023-02-24T01:55:32.243Z,1.13
2023-02-24T01:58:05.030Z,0.20
2023-02-24T02:00:37.839Z,0.20
2023-02-24T02:03:13.330Z,0.97
2023-02-24T02:05:45.465Z,0.33
2023-02-24T02:08:15.127Z,0.20
2023-02-24T02:10:45.521Z,0.37
2023-02-24T02:13:15.888Z,0.47
2023-02-24T02:15:53.883Z,0.30
2023-02-24T02:18:33.661Z,0.20
2023-02-24T02:21:24.945Z,0.10
2023-02-24T02:24:00.653Z,0.73
2023-02-24T02:26:53.783Z,0.40
2023-02-24T02:29:38.125Z,1.20
2023-02-24T02:32:32.331Z,0.20
2023-02-24T02:35:09.531Z,0.30
2023-02-24T02:37:46.245Z,0.30
2023-02-24T02:40:23.469Z,0.30
2023-02-24T02:42:59.417Z,0.50
2023-02-24T02:45:33.467Z,0.43
2023-02-24T02:48:06.617Z,0.55
2023-02-24T02:50:43.497Z,1.57
2023-02-24T02:53:15.845Z,1.03
2023-02-24T02:55:48.664Z,0.10
2023-02-24T02:58:23.658Z,0.70
2023-02-24T03:01:02.776Z,0.10
2023-02-24T03:03:33.836Z,1.07
2023-02-24T03:06:06.684Z,0.50
2023-02-24T03:08:38.863Z,0.10
2023-02-24T03:11:10.953Z,0.27
2023-02-24T03:13:42.673Z,0.20
2023-02-24T03:16:14.008Z,0.53
2023-02-24T03:18:51.049Z,0.53
2023-02-24T03:21:33.110Z,0.83
2023-02-24T03:24:05.819Z,0.10
2023-02-24T03:26:41.983Z,0.60
2023-02-24T03:29:17.594Z,0.40
2023-02-24T03:31:49.217Z,0.40
2023-02-24T03:34:21.885Z,0.20
2023-02-24T03:36:53.268Z,0.37
2023-02-24T03:39:22.135Z,0.20
2023-02-24T03:41:56.918Z,0.10
2023-02-24T03:44:25.664Z,0.20
2023-02-24T03:46:55.845Z,0.10
2023-02-24T03:49:25.506Z,0.20
2023-02-24T03:52:08.893Z,0.60
2023-02-24T03:55:06.380Z,0.40
2023-02-24T03:57:55.025Z,0.50
2023-02-24T04:00:34.407Z,0.10
2023-02-24T04:03:15.416Z,0.27
2023-02-24T04:05:48.602Z,0.53
2023-02-24T04:08:20.681Z,0.80
2023-02-24T04:10:54.510Z,0.30
2023-02-24T04:13:35.439Z,0.20
2023-02-24T04:16:11.367Z,0.30
2023-02-24T04:18:41.668Z,0.47
2023-02-24T04:21:09.919Z,0.50
2023-02-24T04:23:43.782Z,0.20
2023-02-24T04:26:17.288Z,0.85
2023-02-24T04:28:48.645Z,1.08
2023-02-24T04:31:21.249Z,0.27
2023-02-24T04:33:50.590Z,0.83
2023-02-24T04:36:19.199Z,0.67
2023-02-24T04:38:49.820Z,0.17
2023-02-24T04:41:21.963Z,0.10
2023-02-24T04:43:51.145Z,0.10
2023-02-24T04:46:19.719Z,0.87
2023-02-24T04:48:48.481Z,0.77
2023-02-24T04:51:16.976Z,0.37
2023-02-24T04:53:45.311Z,0.37
2023-02-24T04:56:14.807Z,0.10
2023-02-24T04:58:45.465Z,0.20
2023-02-24T05:01:13.691Z,0.10
2023-02-24T05:03:43.671Z,0.87
2023-02-24T05:06:18.132Z,0.10
2023-02-24T05:08:46.575Z,0.50
2023-02-24T05:11:18.610Z,0.93
2023-02-24T05:13:47.272Z,0.10
2023-02-24T05:16:17.646Z,0.63
2023-02-24T05:18:46.001Z,0.90
2023-02-24T05:21:32.854Z,1.90
2023-02-24T05:24:06.949Z,0.57
2023-02-24T05:29:07.331Z,0.77
2023-02-24T05:31:37.206Z,2.10
2023-02-24T05:34:07.812Z,1.67
2023-02-24T05:36:39.110Z,0.87
2023-02-24T05:39:08.152Z,0.53
2023-02-24T05:41:41.382Z,0.93
2023-02-24T05:44:12.795Z,0.53
2023-02-24T05:46:42.198Z,0.20
2023-02-24T05:49:14.801Z,0.20
2023-02-24T05:51:54.870Z,0.27
2023-02-24T05:54:25.958Z,0.60
2023-02-24T05:56:57.105Z,0.40
2023-02-24T05:59:25.480Z,0.80
2023-02-24T06:01:54.341Z,0.10
2023-02-24T06:04:39.401Z,0.37
2023-02-24T06:07:13.011Z,0.30
2023-02-24T06:09:42.962Z,0.10
2023-02-24T06:12:14.932Z,0.20
2023-02-24T06:14:45.163Z,0.10
2023-02-24T06:17:15.220Z,0.60
2023-02-24T06:19:43.853Z,0.13
2023-02-24T06:22:14.992Z,0.20
2023-02-24T06:24:44.492Z,0.40
2023-02-24T06:27:18.011Z,0.43
2023-02-24T06:29:49.942Z,0.52
2023-02-24T06:32:19.132Z,0.93
2023-02-24T06:34:47.561Z,0.33
2023-02-24T06:37:16.691Z,0.30
2023-02-24T06:39:44.988Z,0.43
2023-02-24T06:42:15.032Z,0.33
2023-02-24T06:44:43.233Z,0.20
2023-02-24T06:47:14.266Z,0.97
2023-02-24T06:49:43.055Z,0.50
2023-02-24T06:52:18.690Z,0.10
2023-02-24T06:54:49.113Z,0.30
2023-02-24T06:57:20.515Z,0.67
2023-02-24T06:59:49.118Z,0.30
2023-02-24T07:02:18.081Z,0.70
2023-02-24T07:04:46.605Z,0.37
2023-02-24T07:07:17.542Z,1.30
2023-02-24T07:09:46.174Z,0.40
2023-02-24T07:12:21.129Z,0.30
2023-02-24T07:14:51.370Z,0.33
2023-02-24T07:17:21.049Z,1.23
2023-02-24T07:19:49.010Z,0.20
2023-02-24T07:22:25.265Z,0.33
2023-02-24T07:25:00.596Z,0.20
2023-02-24T07:27:28.883Z,1.60
2023-02-24T07:29:59.351Z,0.20
2023-02-24T07:32:28.115Z,0.40
2023-02-24T07:34:56.091Z,0.67
2023-02-24T07:37:24.520Z,0.47
2023-02-24T07:39:52.969Z,0.50
2023-02-24T07:42:21.385Z,0.40
2023-02-24T07:44:49.641Z,0.50
2023-02-24T07:47:19.022Z,0.20
2023-02-24T07:49:47.037Z,0.53
2023-02-24T07:52:16.301Z,0.63
2023-02-24T07:54:44.437Z,1.07
2023-02-24T07:57:14.406Z,0.43
2023-02-24T07:59:47.795Z,0.43
2023-02-24T08:02:16.609Z,0.47
2023-02-24T08:04:50.508Z,0.67
2023-02-24T08:07:25.008Z,0.47
2023-02-24T08:10:14.603Z,0.60
2023-02-24T08:12:47.690Z,1.77
2023-02-24T08:15:22.303Z,0.77
2023-02-24T08:17:50.442Z,0.30
2023-02-24T08:20:25.208Z,0.27
2023-02-24T08:22:54.553Z,0.20
2023-02-24T08:25:24.343Z,0.20
2023-02-24T08:28:07.254Z,0.97
2023-02-24T08:30:40.302Z,0.73
2023-02-24T08:33:11.057Z,0.87
2023-02-24T08:35:45.003Z,0.53
2023-02-24T08:38:20.189Z,1.00
2023-02-24T08:40:51.602Z,0.87
2023-02-24T08:43:33.066Z,1.90
2023-02-24T08:46:04.520Z,1.10
2023-02-24T08:48:38.374Z,0.80
2023-02-24T08:51:24.450Z,0.88
2023-02-24T08:53:54.667Z,0.90
2023-02-24T08:56:27.923Z,1.47
2023-02-24T08:59:05.773Z,0.70
2023-02-24T09:01:36.154Z,0.87
2023-02-24T09:04:07.412Z,0.93
2023-02-24T09:06:44.298Z,1.27
2023-02-24T09:09:21.431Z,0.83
2023-02-24T09:11:56.123Z,1.10
2023-02-24T09:14:28.569Z,1.90
2023-02-24T09:17:06.449Z,0.77
2023-02-24T09:20:01.850Z,1.43
2023-02-24T09:22:32.234Z,0.93
2023-02-24T09:25:24.218Z,1.27
2023-02-24T09:27:57.214Z,1.80
2023-02-24T09:30:38.333Z,2.47
2023-02-24T09:33:22.511Z,1.17
2023-02-24T09:36:09.709Z,1.58
2023-02-24T09:39:10.907Z,2.20
2023-02-24T09:41:56.717Z,1.40
2023-02-24T09:44:29.969Z,0.70
2023-02-24T09:47:09.269Z,0.97
2023-02-24T09:49:48.802Z,0.90
2023-02-24T09:52:19.422Z,2.03
2023-02-24T09:55:08.358Z,0.93
2023-02-24T09:58:02.388Z,1.67
2023-02-24T10:00:35.067Z,1.25
2023-02-24T10:03:19.767Z,1.20
2023-02-24T10:05:59.157Z,0.67
2023-02-24T10:08:34.067Z,1.80
2023-02-24T10:11:08.632Z,1.60
2023-02-24T10:13:42.883Z,0.80
2023-02-24T10:18:48.457Z,1.37
2023-02-24T10:21:30.940Z,1.47
2023-02-24T10:24:15.608Z,0.93
2023-02-24T10:29:55.637Z,1.37
2023-02-24T10:32:34.134Z,0.50
2023-02-24T10:35:03.556Z,1.60
2023-02-24T10:37:31.648Z,0.73
2023-02-24T10:40:01.239Z,0.60
2023-02-24T10:42:34.462Z,2.40
2023-02-24T10:45:17.972Z,1.60
2023-02-24T10:47:57.135Z,1.23
2023-02-24T10:50:28.119Z,2.17
2023-02-24T10:53:26.616Z,1.20
2023-02-24T10:56:15.201Z,0.97
2023-02-24T10:58:56.915Z,0.77
2023-02-24T11:01:43.591Z,1.60
2023-02-24T11:04:33.595Z,1.53
2023-02-24T11:07:09.797Z,1.63
2023-02-24T11:09:44.196Z,1.20
2023-02-24T11:12:38.335Z,1.93
2023-02-24T11:15:36.959Z,1.55
2023-02-24T11:18:07.031Z,2.30
2023-02-24T11:20:48.622Z,1.60
2023-02-24T11:23:20.535Z,1.43
2023-02-24T11:25:53.651Z,0.83
2023-02-24T11:28:44.665Z,2.40
2023-02-24T11:31:29.700Z,0.80
2023-02-24T11:34:05.528Z,0.90
2023-02-24T11:36:43.509Z,0.80
2023-02-24T11:39:36.514Z,1.00
2023-02-24T11:42:11.422Z,2.23
2023-02-24T11:44:49.286Z,1.20
2023-02-24T11:47:23.320Z,1.53
2023-02-24T11:49:55.331Z,1.77
2023-02-24T11:52:31.062Z,0.87
2023-02-24T11:55:01.076Z,2.17
2023-02-24T11:57:37.745Z,2.70
2023-02-24T12:00:13.469Z,0.90
2023-02-24T12:02:51.279Z,1.40
2023-02-24T12:05:22.512Z,0.73
2023-02-24T12:07:53.724Z,0.90
2023-02-24T12:10:25.334Z,1.10
2023-02-24T12:13:05.238Z,0.87
2023-02-24T12:15:39.185Z,1.23
2023-02-24T12:18:17.877Z,2.47
2023-02-24T12:20:50.342Z,0.97
2023-02-24T12:23:24.364Z,0.93
2023-02-24T12:26:06.349Z,0.80
2023-02-24T12:28:57.835Z,1.90
2023-02-24T12:31:37.660Z,2.10
2023-02-24T12:34:14.569Z,1.70
2023-02-24T12:37:01.061Z,1.57
2023-02-24T12:39:32.306Z,1.03
2023-02-24T12:42:08.856Z,1.90
2023-02-24T12:44:48.125Z,1.87
2023-02-24T12:47:23.982Z,2.03
2023-02-24T12:50:09.123Z,1.07
2023-02-24T12:52:48.992Z,1.70
2023-02-24T12:55:24.796Z,1.30
2023-02-24T12:58:01.231Z,1.80
2023-02-24T13:00:38.004Z,2.10
2023-02-24T13:03:20.902Z,0.90
2023-02-24T13:06:01.150Z,0.97
2023-02-24T13:08:42.412Z,1.53
2023-02-24T13:11:19.694Z,1.10
2023-02-24T13:13:56.498Z,0.97
2023-02-24T13:16:31.616Z,1.50
2023-02-24T13:19:20.278Z,1.13
2023-02-24T13:22:09.825Z,1.77
2023-02-24T13:24:38.921Z,1.13
2023-02-24T13:27:17.428Z,2.33
2023-02-24T13:29:47.027Z,0.80
2023-02-24T13:32:33.622Z,1.33
2023-02-24T13:35:04.162Z,2.03
2023-02-24T13:37:36.743Z,1.27
2023-02-24T13:40:24.018Z,1.37
2023-02-24T13:43:01.560Z,1.77
2023-02-24T13:45:31.776Z,1.93
2023-02-24T13:48:41.756Z,1.90
2023-02-24T13:51:26.494Z,1.90
2023-02-24T13:54:08.603Z,0.97
2023-02-24T13:56:44.874Z,1.30
2023-02-24T13:59:40.621Z,0.80
2023-02-24T14:02:16.740Z,0.67
2023-02-24T14:04:50.233Z,0.83
2023-02-24T14:07:22.570Z,1.92
2023-02-24T14:09:55.402Z,0.47
2023-02-24T14:12:28.785Z,1.00
2023-02-24T14:14:57.646Z,2.05
2023-02-24T14:17:28.864Z,0.97
2023-02-24T14:20:09.064Z,1.17
2023-02-24T14:22:44.819Z,2.50
2023-02-24T14:25:15.879Z,1.77
2023-02-24T14:27:45.814Z,1.20
2023-02-24T14:30:25.287Z,1.03
2023-02-24T14:32:53.876Z,1.83
2023-02-24T14:35:34.308Z,1.60
2023-02-24T14:38:02.648Z,0.97
2023-02-24T14:40:32.330Z,2.57
2023-02-24T14:43:00.503Z,1.30
2023-02-24T14:45:30.988Z,1.67
2023-02-24T14:47:59.092Z,1.07
2023-02-24T14:50:31.341Z,1.30
2023-02-24T14:53:03.667Z,0.97
2023-02-24T14:55:37.211Z,1.20
2023-02-24T14:58:12.888Z,1.30
2023-02-24T15:00:47.111Z,1.63
2023-02-24T15:03:21.170Z,1.73
2023-02-24T15:08:32.677Z,1.50
2023-02-24T15:11:07.877Z,1.07
2023-02-24T15:13:39.408Z,0.80
2023-02-24T15:16:13.756Z,1.20
2023-02-24T15:18:42.537Z,0.87
2023-02-24T15:21:22.422Z,2.40
2023-02-24T15:23:51.178Z,1.27
2023-02-24T15:26:28.737Z,1.30
2023-02-24T15:29:02.036Z,1.70
2023-02-24T15:31:31.398Z,1.70
2023-02-24T15:34:01.621Z,1.80
2023-02-24T15:36:33.316Z,1.37
2023-02-24T15:39:05.112Z,0.73
2023-02-24T15:41:42.561Z,0.97
2023-02-24T15:44:26.444Z,1.73
2023-02-24T15:46:54.982Z,0.95
2023-02-24T15:49:22.996Z,1.50
2023-02-24T15:51:53.001Z,0.60
2023-02-24T15:54:29.292Z,1.23
2023-02-24T15:57:00.793Z,1.23
2023-02-24T15:59:29.518Z,1.63
2023-02-24T16:01:57.662Z,1.40
2023-02-24T16:04:27.641Z,3.07
2023-02-24T16:06:59.050Z,1.33
2023-02-24T16:09:33.620Z,1.53
2023-02-24T16:12:06.875Z,2.23
2023-02-24T16:14:35.207Z,2.13
2023-02-24T16:17:08.956Z,1.27
2023-02-24T16:19:37.425Z,0.77
2023-02-24T16:22:05.417Z,2.70
2023-02-24T16:24:33.488Z,2.23
2023-02-24T16:27:03.480Z,2.07
2023-02-24T16:29:31.668Z,0.63
2023-02-24T16:32:00.045Z,1.37
2023-02-24T16:34:28.182Z,1.00
2023-02-24T16:36:56.875Z,1.93
2023-02-24T16:39:25.376Z,1.53
2023-02-24T16:41:53.745Z,0.83
2023-02-24T16:44:23.772Z,1.23
2023-02-24T16:46:53.006Z,1.73
2023-02-24T16:49:22.385Z,2.17
2023-02-24T16:51:50.394Z,3.17
2023-02-24T16:54:21.954Z,1.60
2023-02-24T16:56:50.307Z,2.53
2023-02-24T16:59:18.311Z,2.70
2023-02-24T17:01:47.834Z,2.10
2023-02-24T17:04:16.065Z,2.13
2023-02-24T17:06:44.030Z,1.50
2023-02-24T17:09:15.493Z,1.27
2023-02-24T17:11:44.483Z,2.30
2023-02-24T17:14:17.102Z,2.03
2023-02-24T17:16:45.145Z,0.90
2023-02-24T17:19:15.079Z,2.03
2023-02-24T17:21:45.425Z,1.70
2023-02-24T17:24:16.880Z,1.77
2023-02-24T17:26:45.099Z,1.53
2023-02-24T17:29:14.762Z,1.33
2023-02-24T17:31:43.368Z,1.30
2023-02-24T17:34:11.883Z,1.70
2023-02-24T17:36:41.256Z,1.63
2023-02-24T17:39:09.270Z,1.80
2023-02-24T17:41:37.251Z,2.90
2023-02-24T17:44:05.283Z,2.23
2023-02-24T17:46:33.384Z,3.13
2023-02-24T17:49:03.324Z,1.70
2023-02-24T17:51:31.605Z,1.23
2023-02-24T17:54:01.108Z,2.93
2023-02-24T17:56:29.215Z,1.17
2023-02-24T17:58:59.064Z,2.23
2023-02-24T18:01:27.112Z,2.10
2023-02-24T18:03:57.516Z,3.40
2023-02-24T18:06:25.991Z,1.13
2023-02-24T18:08:54.743Z,5.80
2023-02-24T18:11:24.161Z,3.23
2023-02-24T18:13:52.846Z,5.30
2023-02-24T18:16:21.333Z,3.77
2023-02-24T18:18:50.086Z,2.37
2023-02-24T18:21:18.278Z,3.77
2023-02-24T18:23:49.210Z,2.20
2023-02-24T18:26:17.709Z,3.97
2023-02-24T18:28:47.557Z,4.43
2023-02-24T18:31:17.758Z,2.80
2023-02-24T18:33:46.789Z,4.47
2023-02-24T18:36:15.508Z,4.90
2023-02-24T18:38:44.310Z,3.07
2023-02-24T18:41:14.276Z,2.57
2023-02-24T18:43:42.886Z,4.20
2023-02-24T18:46:15.000Z,4.53
2023-02-24T18:48:44.610Z,1.93
2023-02-24T18:51:13.718Z,2.50
2023-02-24T18:53:41.824Z,3.70
2023-02-24T18:56:12.060Z,3.77
2023-02-24T18:58:40.884Z,2.70
2023-02-24T19:01:15.482Z,2.50
2023-02-24T19:03:43.922Z,1.90
2023-02-24T19:06:13.832Z,1.93
2023-02-24T19:08:42.860Z,2.97
2023-02-24T19:11:11.900Z,1.20
2023-02-24T19:13:40.120Z,1.23
2023-02-24T19:16:08.911Z,0.97
2023-02-24T19:18:38.868Z,0.93
2023-02-24T19:21:08.241Z,2.23
2023-02-24T19:23:37.253Z,0.97
2023-02-24T19:26:05.407Z,1.80
2023-02-24T19:28:33.385Z,0.60
2023-02-24T19:31:01.726Z,1.13
2023-02-24T19:33:29.671Z,2.20
2023-02-24T19:36:01.373Z,0.93
2023-02-24T19:38:29.365Z,1.70
2023-02-24T19:40:59.336Z,1.00
2023-02-24T19:43:27.323Z,0.80
2023-02-24T19:45:55.432Z,1.23
2023-02-24T19:48:23.507Z,1.90
2023-02-24T19:50:51.524Z,1.37
2023-02-24T19:53:20.894Z,1.27
2023-02-24T19:55:50.812Z,1.40
2023-02-24T19:58:19.400Z,1.07
2023-02-24T20:00:48.385Z,1.73
2023-02-24T20:03:16.616Z,2.20
2023-02-24T20:05:44.682Z,1.90
2023-02-24T20:08:12.727Z,1.13
2023-02-24T20:10:42.481Z,1.57
2023-02-24T20:13:10.564Z,2.20
2023-02-24T20:15:38.591Z,1.10
2023-02-24T20:18:08.923Z,0.67
2023-02-24T20:20:37.423Z,0.87
2023-02-24T20:23:05.880Z,2.53
2023-02-24T20:25:33.892Z,1.77
2023-02-24T20:28:04.429Z,0.70
2023-02-24T20:30:32.442Z,1.27
2023-02-24T20:33:00.539Z,1.73
2023-02-24T20:35:28.678Z,1.37
2023-02-24T20:37:56.698Z,1.43
2023-02-24T20:40:24.749Z,2.00
2023-02-24T20:42:52.796Z,1.00
2023-02-24T20:45:22.180Z,0.90
2023-02-24T20:47:50.261Z,3.93
2023-02-24T20:50:18.539Z,2.73
2023-02-24T20:52:46.770Z,2.17
2023-02-24T20:55:14.865Z,0.73
2023-02-24T20:57:42.896Z,1.17
2023-02-24T21:00:12.283Z,0.87
2023-02-24T21:02:42.375Z,1.77
2023-02-24T21:05:11.200Z,1.07
2023-02-24T21:07:40.193Z,0.47
2023-02-24T21:10:08.616Z,1.43
2023-02-24T21:12:36.682Z,1.83
2023-02-24T21:15:05.022Z,0.73
2023-02-24T21:17:34.439Z,1.90
2023-02-24T21:20:04.123Z,1.63
2023-02-24T21:22:32.375Z,1.30
2023-02-24T21:25:00.701Z,1.03
2023-02-24T21:27:28.616Z,1.13
2023-02-24T21:29:56.590Z,1.00
2023-02-24T21:32:24.742Z,2.37
2023-02-24T21:34:52.802Z,2.50
2023-02-24T21:37:22.249Z,1.70
2023-02-24T21:39:50.412Z,1.20
2023-02-24T21:42:18.379Z,0.63
2023-02-24T21:44:46.382Z,2.00
2023-02-24T21:47:14.312Z,2.13
2023-02-24T21:49:42.269Z,1.97
2023-02-24T21:52:11.690Z,1.43
2023-02-24T21:54:42.380Z,1.53
2023-02-24T21:57:10.460Z,1.00
2023-02-24T21:59:38.450Z,1.23
2023-02-24T22:02:06.719Z,0.77
2023-02-24T22:04:35.148Z,1.07
2023-02-24T22:07:03.065Z,1.60
2023-02-24T22:09:31.056Z,1.97
2023-02-24T22:12:00.672Z,1.30
2023-02-24T22:14:28.703Z,1.43
2023-02-24T22:16:56.609Z,1.57
2023-02-24T22:19:24.680Z,1.27
2023-02-24T22:21:52.822Z,1.40
2023-02-24T22:24:22.004Z,1.40
2023-02-24T22:26:51.222Z,0.57
2023-02-24T22:29:20.976Z,2.07
2023-02-24T22:31:49.846Z,1.70
2023-02-24T22:34:18.397Z,0.90
2023-02-24T22:36:46.410Z,1.10
2023-02-24T22:39:16.708Z,0.67
2023-02-24T22:41:45.653Z,2.27
2023-02-24T22:44:14.444Z,3.30
2023-02-24T22:46:43.935Z,0.97
2023-02-24T22:49:12.235Z,0.30
2023-02-24T22:51:40.617Z,1.40
2023-02-24T22:54:08.701Z,1.27
2023-02-24T22:56:38.011Z,1.53
2023-02-24T22:59:05.989Z,1.83
2023-02-24T23:01:36.463Z,1.17
2023-02-24T23:04:08.062Z,1.00
2023-02-24T23:06:37.280Z,1.50
2023-02-24T23:09:06.506Z,1.37
2023-02-24T23:11:37.671Z,2.33
2023-02-24T23:14:10.115Z,4.57
2023-02-24T23:16:39.077Z,7.70
2023-02-24T23:19:13.070Z,4.77
2023-02-24T23:21:43.163Z,4.38
2023-02-24T23:24:14.010Z,5.17
2023-02-24T23:26:44.918Z,7.27
2023-02-24T23:29:15.719Z,8.17
2023-02-24T23:31:44.361Z,7.57
2023-02-24T23:34:14.543Z,6.90
2023-02-24T23:36:44.812Z,4.43
2023-02-24T23:39:15.663Z,4.83
2023-02-24T23:41:43.893Z,6.67
2023-02-24T23:44:12.644Z,4.10
2023-02-24T23:46:41.907Z,4.83
2023-02-24T23:49:10.000Z,4.30
2023-02-24T23:51:48.021Z,2.50
2023-02-24T23:54:17.985Z,3.07
2023-02-24T23:56:46.838Z,2.60
2023-02-24T23:59:15.437Z,2.77
